Time;durP1;ratioP1;P1;durP2;ratioP2;P2;SDS_P1;SDS_P2;PMS_P1;PMS_P2;Temp;Humidity;BMP_temperature;BMP_pressure;BME280_temperature;BME280_humidity;BME280_pressure;Samples;Min_cycle;Max_cycle;Signal;HPM_P1;HPM_P2
2021/11/05 00:00:45;;;;;;;5.80;5.30;;;6.10;99.90;;;;;;4992479;28;20195;-71
2021/11/05 00:03:11;;;;;;;5.60;4.77;;;6.30;99.90;;;;;;4992538;28;20582;-69
2021/11/05 00:05:36;;;;;;;5.43;4.90;;;6.30;99.90;;;;;;4992567;28;20589;-71
2021/11/05 00:08:07;;;;;;;5.37;4.60;;;5.90;99.90;;;;;;4992132;28;20242;-71
2021/11/05 00:10:32;;;;;;;5.33;4.90;;;6.30;99.90;;;;;;4992409;28;20195;-72
2021/11/05 00:12:58;;;;;;;5.07;4.67;;;6.30;99.90;;;;;;4992457;28;20419;-70
2021/11/05 00:15:24;;;;;;;4.40;4.10;;;6.30;99.90;;;;;;4992698;28;20172;-71
2021/11/05 00:17:49;;;;;;;5.47;4.97;;;6.30;99.90;;;;;;4992134;28;20434;-71
2021/11/05 00:20:15;;;;;;;5.03;4.63;;;6.30;99.90;;;;;;4992258;28;20184;-71
2021/11/05 00:22:41;;;;;;;11.03;5.67;;;6.30;99.90;;;;;;4992386;28;20179;-70
2021/11/05 00:25:08;;;;;;;4.10;3.80;;;6.30;99.90;;;;;;4992305;28;20650;-71
2021/11/05 00:27:35;;;;;;;4.43;4.10;;;6.40;99.90;;;;;;4991992;28;20251;-71
2021/11/05 00:30:01;;;;;;;5.20;4.80;;;6.30;99.90;;;;;;4992266;28;20498;-71
2021/11/05 00:32:28;;;;;;;4.87;4.50;;;6.30;99.90;;;;;;4992139;28;20559;-70
2021/11/05 00:34:53;;;;;;;5.67;4.50;;;6.30;99.90;;;;;;4992272;28;20415;-71
2021/11/05 00:37:19;;;;;;;5.73;5.23;;;6.30;99.90;;;;;;4992076;28;20426;-71
2021/11/05 00:39:44;;;;;;;5.57;4.27;;;6.30;99.90;;;;;;4992424;28;20220;-70
2021/11/05 00:42:10;;;;;;;4.60;4.20;;;6.30;99.90;;;;;;4994585;28;20246;-72
2021/11/05 00:44:35;;;;;;;5.77;5.30;;;6.30;99.90;;;;;;4995915;28;20654;-70
2021/11/05 00:47:01;;;;;;;5.50;4.97;;;6.30;99.90;;;;;;4995732;28;20172;-70
2021/11/05 00:49:26;;;;;;;6.37;5.77;;;6.40;99.90;;;;;;4995450;28;20203;-71
2021/11/05 00:51:52;;;;;;;5.60;5.17;;;6.40;99.90;;;;;;4995621;28;20192;-70
2021/11/05 00:54:18;;;;;;;5.40;4.43;;;6.40;99.90;;;;;;4995626;28;20175;-71
2021/11/05 00:56:43;;;;;;;4.67;4.27;;;6.40;99.90;;;;;;4994413;28;20178;-71
2021/11/05 00:59:09;;;;;;;4.13;3.83;;;6.40;99.90;;;;;;4995307;28;20270;-71
2021/11/05 01:01:35;;;;;;;6.63;6.03;;;6.40;99.90;;;;;;4995524;28;20196;-71
2021/11/05 01:04:01;;;;;;;5.50;4.70;;;6.40;99.90;;;;;;4995581;28;20773;-71
2021/11/05 01:06:26;;;;;;;5.20;4.70;;;6.50;99.90;;;;;;4995661;28;20258;-70
2021/11/05 01:08:51;;;;;;;5.00;4.60;;;6.50;99.90;;;;;;4995135;28;20283;-71
2021/11/05 01:11:17;;;;;;;5.33;4.83;;;6.50;99.90;;;;;;4995513;28;20532;-71
2021/11/05 01:13:43;;;;;;;5.70;5.20;;;6.50;99.90;;;;;;4995363;28;20199;-71
2021/11/05 01:16:08;;;;;;;5.00;4.60;;;6.50;99.90;;;;;;4995316;28;20204;-71
2021/11/05 01:18:34;;;;;;;4.83;4.43;;;6.50;99.90;;;;;;4994883;28;20176;-71
2021/11/05 01:21:00;;;;;;;4.67;4.27;;;6.50;99.90;;;;;;4995088;28;20278;-71
2021/11/05 01:23:25;;;;;;;5.53;5.13;;;6.50;99.90;;;;;;4995127;28;20184;-72
2021/11/05 01:25:51;;;;;;;5.03;4.63;;;6.50;99.90;;;;;;4995087;28;20841;-72
2021/11/05 01:28:17;;;;;;;4.70;4.30;;;7.00;99.90;;;;;;4994736;28;20560;-71
2021/11/05 01:30:42;;;;;;;5.30;4.80;;;6.40;99.90;;;;;;4994835;28;20203;-71
2021/11/05 01:33:10;;;;;;;6.00;4.50;;;6.90;99.90;;;;;;4994989;28;20179;-71
2021/11/05 01:35:36;;;;;;;9.00;4.53;;;6.40;99.90;;;;;;4994980;28;20172;-71
2021/11/05 01:38:04;;;;;;;4.03;3.73;;;6.40;99.90;;;;;;4994604;28;20415;-71
2021/11/05 01:40:30;;;;;;;4.17;3.70;;;6.40;99.90;;;;;;4994755;28;20971;-71
2021/11/05 01:43:00;;;;;;;5.20;4.70;;;6.40;99.90;;;;;;4994784;28;20455;-71
2021/11/05 01:45:26;;;;;;;4.97;4.57;;;6.50;99.90;;;;;;4994798;28;20498;-71
2021/11/05 01:47:52;;;;;;;5.80;5.30;;;6.50;99.90;;;;;;4994301;28;20900;-71
2021/11/05 01:50:18;;;;;;;4.93;4.53;;;6.50;99.90;;;;;;4994419;28;20222;-71
2021/11/05 01:52:44;;;;;;;5.17;4.77;;;6.50;99.90;;;;;;4994604;28;20414;-71
2021/11/05 01:55:11;;;;;;;4.70;4.30;;;6.50;99.90;;;;;;4994527;28;20171;-71
2021/11/05 01:57:37;;;;;;;4.93;4.53;;;6.50;99.90;;;;;;4994258;28;20521;-71
2021/11/05 02:00:05;;;;;;;5.10;4.70;;;6.50;99.90;;;;;;4994540;28;20452;-72
2021/11/05 02:02:31;;;;;;;5.57;4.93;;;6.40;99.90;;;;;;4994293;28;20325;-71
2021/11/05 02:04:56;;;;;;;5.40;4.90;;;6.40;99.90;;;;;;4994400;28;20502;-71
2021/11/05 02:07:26;;;;;;;5.33;4.90;;;6.50;99.90;;;;;;4994041;28;20585;-71
2021/11/05 02:09:52;;;;;;;5.20;4.70;;;6.40;99.90;;;;;;4994286;28;20180;-71
2021/11/05 02:12:18;;;;;;;5.30;4.80;;;6.40;99.90;;;;;;4994219;28;20477;-70
2021/11/05 02:14:46;;;;;;;5.27;4.77;;;6.30;99.90;;;;;;4994127;28;20446;-72
2021/11/05 02:17:12;;;;;;;5.23;4.63;;;6.30;99.90;;;;;;4993917;28;20231;-71
2021/11/05 02:19:38;;;;;;;4.53;4.23;;;6.20;99.90;;;;;;4992715;28;20423;-71
2021/11/05 02:22:04;;;;;;;5.30;4.80;;;6.30;99.90;;;;;;4994008;28;20235;-71
2021/11/05 02:24:30;;;;;;;5.33;4.83;;;6.30;99.90;;;;;;4994012;28;20258;-71
2021/11/05 02:26:57;;;;;;;5.50;5.00;;;6.20;99.90;;;;;;4993934;28;20862;-70
2021/11/05 02:29:23;;;;;;;5.33;4.83;;;6.20;99.90;;;;;;4993559;28;20736;-71
2021/11/05 02:31:49;;;;;;;5.43;4.17;;;6.20;99.90;;;;;;4993573;28;20466;-72
2021/11/05 02:34:15;;;;;;;5.23;4.83;;;6.10;99.90;;;;;;4994023;28;20498;-71
2021/11/05 02:36:41;;;;;;;5.57;4.80;;;6.00;99.90;;;;;;4993729;28;20450;-72
2021/11/05 02:39:08;;;;;;;5.37;4.87;;;6.10;99.90;;;;;;4993406;28;20423;-71
2021/11/05 02:41:42;;;;;;;5.67;5.17;;;6.00;99.90;;;;;;4993671;28;20188;-71
2021/11/05 02:44:09;;;;;;;5.93;5.43;;;6.00;99.90;;;;;;4993592;28;20501;-71
2021/11/05 02:46:35;;;;;;;6.03;5.53;;;6.00;99.90;;;;;;4993610;28;20419;-71
2021/11/05 02:49:04;;;;;;;6.27;5.77;;;6.00;99.90;;;;;;4993186;28;20509;-71
2021/11/05 02:51:30;;;;;;;8.27;5.70;;;6.10;99.90;;;;;;4993345;28;20532;-71
2021/11/05 02:53:56;;;;;;;5.70;5.20;;;6.00;99.90;;;;;;4993392;28;20430;-70
2021/11/05 02:56:23;;;;;;;5.93;5.43;;;6.10;99.90;;;;;;4993420;28;20948;-71
2021/11/05 02:58:49;;;;;;;5.83;5.33;;;6.10;99.90;;;;;;4993160;28;20225;-71
2021/11/05 03:01:15;;;;;;;5.80;5.40;;;6.10;99.90;;;;;;4992036;28;20542;-72
2021/11/05 03:03:40;;;;;;;5.80;5.30;;;6.10;99.90;;;;;;4992769;28;20502;-70
2021/11/05 03:06:06;;;;;;;5.40;4.90;;;6.20;99.90;;;;;;4993284;28;20171;-71
2021/11/05 03:08:32;;;;;;;5.20;4.70;;;6.30;99.90;;;;;;4992889;28;20677;-71
2021/11/05 03:10:58;;;;;;;5.33;4.83;;;6.30;99.90;;;;;;4991896;28;20566;-71
2021/11/05 03:13:23;;;;;;;5.47;5.00;;;6.30;99.90;;;;;;4993144;28;20172;-71
2021/11/05 03:15:49;;;;;;;4.50;4.10;;;6.30;99.90;;;;;;4993106;28;20473;-72
2021/11/05 03:18:17;;;;;;;7.40;4.67;;;6.30;99.90;;;;;;4992798;28;20234;-71
2021/11/05 03:20:43;;;;;;;5.03;4.60;;;6.30;99.90;;;;;;4992992;28;20195;-71
2021/11/05 03:23:10;;;;;;;5.37;4.97;;;6.30;99.90;;;;;;4992952;28;20488;-71
2021/11/05 03:25:35;;;;;;;5.90;5.30;;;6.50;99.90;;;;;;4992941;28;20506;-71
2021/11/05 03:28:01;;;;;;;4.90;4.50;;;6.40;99.90;;;;;;4992480;28;20537;-71
2021/11/05 03:30:26;;;;;;;4.60;4.20;;;6.40;99.90;;;;;;4992739;28;20164;-71
2021/11/05 03:32:52;;;;;;;4.73;4.33;;;6.30;99.90;;;;;;4992887;28;20167;-72
2021/11/05 03:35:18;;;;;;;4.70;4.30;;;6.40;99.90;;;;;;4992833;28;20682;-72
2021/11/05 03:37:44;;;;;;;4.63;4.23;;;6.50;99.90;;;;;;4992523;28;20433;-71
2021/11/05 03:40:12;;;;;;;4.10;3.80;;;6.40;99.90;;;;;;4992781;28;20179;-71
2021/11/05 03:42:38;;;;;;;4.63;4.23;;;6.50;99.90;;;;;;4992719;28;20414;-71
2021/11/05 03:45:06;;;;;;;4.30;3.90;;;6.60;99.90;;;;;;4992777;28;20424;-71
2021/11/05 03:47:32;;;;;;;4.20;3.90;;;6.60;99.90;;;;;;4992323;28;20176;-71
2021/11/05 03:49:58;;;;;;;3.77;3.50;;;6.60;99.90;;;;;;4992698;28;20806;-71
2021/11/05 03:52:24;;;;;;;4.67;4.27;;;6.30;99.90;;;;;;4992729;28;20430;-71
2021/11/05 03:54:50;;;;;;;4.70;4.30;;;6.40;99.90;;;;;;4992610;28;20171;-71
2021/11/05 03:57:15;;;;;;;4.40;4.10;;;6.40;99.90;;;;;;4992370;28;20202;-69
2021/11/05 03:59:41;;;;;;;4.20;3.80;;;6.30;99.90;;;;;;4992532;28;20171;-71
2021/11/05 04:02:06;;;;;;;5.07;4.10;;;6.40;99.90;;;;;;4992532;28;20202;-71
2021/11/05 04:04:32;;;;;;;4.50;4.13;;;6.40;99.90;;;;;;4992572;28;20198;-70
2021/11/05 04:06:58;;;;;;;3.90;3.60;;;5.60;99.90;;;;;;4991190;28;20553;-70
2021/11/05 04:09:24;;;;;;;4.90;4.50;;;6.30;99.90;;;;;;4992224;28;20461;-71
2021/11/05 04:11:49;;;;;;;4.50;4.03;;;6.30;99.90;;;;;;4992406;28;20538;-71
2021/11/05 04:14:15;;;;;;;3.73;3.53;;;6.30;99.90;;;;;;4993181;28;20226;-71
2021/11/05 04:16:40;;;;;;;4.00;3.70;;;6.30;99.90;;;;;;4996373;28;20654;-71
2021/11/05 04:19:06;;;;;;;4.40;3.93;;;6.30;99.90;;;;;;4994869;28;20531;-71
2021/11/05 04:21:32;;;;;;;3.63;3.33;;;6.30;99.90;;;;;;4996163;28;20613;-71
2021/11/05 04:23:58;;;;;;;3.80;3.50;;;6.30;99.90;;;;;;4996253;28;20171;-71
2021/11/05 04:26:23;;;;;;;6.40;3.53;;;6.30;99.90;;;;;;4996119;28;20278;-71
2021/11/05 04:28:49;;;;;;;4.80;4.40;;;6.30;99.90;;;;;;4995819;28;20565;-71
2021/11/05 04:31:15;;;;;;;5.57;3.60;;;6.30;99.90;;;;;;4996424;28;20214;-71
2021/11/05 04:33:41;;;;;;;3.90;3.60;;;6.30;99.90;;;;;;4996213;28;20179;-71
2021/11/05 04:36:07;;;;;;;3.80;3.40;;;6.30;99.90;;;;;;4996162;28;20673;-70
2021/11/05 04:38:33;;;;;;;4.83;4.17;;;6.30;99.90;;;;;;4994382;28;20430;-70
2021/11/05 04:40:59;;;;;;;5.97;4.30;;;6.30;99.90;;;;;;4995809;28;20443;-70
2021/11/05 04:43:25;;;;;;;4.30;3.37;;;6.30;99.90;;;;;;4995975;28;20262;-70
2021/11/05 04:45:51;;;;;;;4.10;3.60;;;6.30;99.90;;;;;;4995941;28;20175;-70
2021/11/05 04:48:16;;;;;;;4.00;3.70;;;6.40;99.90;;;;;;4995448;28;20455;-70
2021/11/05 04:50:42;;;;;;;3.93;3.63;;;6.30;99.90;;;;;;4995692;28;20657;-71
2021/11/05 04:53:08;;;;;;;4.70;3.93;;;6.40;99.90;;;;;;4995783;28;20704;-70
2021/11/05 04:55:33;;;;;;;3.97;3.67;;;6.40;99.90;;;;;;4995636;28;20183;-70
2021/11/05 04:57:59;;;;;;;3.57;3.23;;;6.40;99.90;;;;;;4995378;28;20222;-71
2021/11/05 05:00:26;;;;;;;3.70;3.40;;;6.40;99.90;;;;;;4995528;28;20187;-70
2021/11/05 05:02:53;;;;;;;3.23;2.97;;;6.30;99.90;;;;;;4994311;28;20175;-70
2021/11/05 05:05:19;;;;;;;3.20;2.90;;;6.40;99.90;;;;;;4994210;28;20422;-70
2021/11/05 05:07:46;;;;;;;3.80;3.50;;;6.40;99.90;;;;;;4995080;28;20423;-70
2021/11/05 05:10:13;;;;;;;3.30;3.00;;;6.40;99.90;;;;;;4995248;28;20421;-71
2021/11/05 05:12:40;;;;;;;4.63;3.43;;;6.40;99.90;;;;;;4995403;28;20912;-70
2021/11/05 05:15:08;;;;;;;5.50;3.20;;;6.40;99.90;;;;;;4995396;28;20511;-69
2021/11/05 05:17:33;;;;;;;4.13;3.43;;;6.40;99.90;;;;;;4995252;28;20425;-70
2021/11/05 05:19:59;;;;;;;3.77;3.40;;;6.40;99.90;;;;;;4995336;28;20935;-70
2021/11/05 05:22:24;;;;;;;3.27;3.03;;;6.40;99.90;;;;;;4995131;28;20192;-71
2021/11/05 05:24:50;;;;;;;5.00;3.83;;;6.30;99.90;;;;;;4994575;28;20616;-70
2021/11/05 05:27:16;;;;;;;3.80;3.50;;;6.30;99.90;;;;;;4994965;28;20175;-70
2021/11/05 05:29:43;;;;;;;4.10;3.70;;;6.30;99.90;;;;;;4994937;28;20707;-71
2021/11/05 05:32:09;;;;;;;3.70;3.37;;;6.40;99.90;;;;;;4994961;28;20207;-70
2021/11/05 05:34:35;;;;;;;3.83;3.47;;;6.30;99.90;;;;;;4994866;28;20419;-70
2021/11/05 05:37:00;;;;;;;4.63;4.20;;;6.40;99.90;;;;;;4994880;28;20233;-70
2021/11/05 05:39:27;;;;;;;4.93;4.03;;;6.40;99.90;;;;;;4994565;28;20172;-70
2021/11/05 05:41:52;;;;;;;4.10;3.73;;;6.40;99.90;;;;;;4994913;28;20219;-71
2021/11/05 05:44:18;;;;;;;4.07;3.67;;;6.40;99.90;;;;;;4994927;28;20418;-70
2021/11/05 05:46:44;;;;;;;4.03;3.73;;;6.40;99.90;;;;;;4994898;28;20645;-70
2021/11/05 05:49:10;;;;;;;4.13;3.83;;;6.40;99.90;;;;;;4994459;28;20541;-71
2021/11/05 05:51:35;;;;;;;4.73;4.33;;;6.40;99.90;;;;;;4994529;28;20480;-70
2021/11/05 05:54:02;;;;;;;3.80;3.50;;;6.40;99.90;;;;;;4994673;28;20238;-70
2021/11/05 05:56:27;;;;;;;4.93;4.43;;;6.50;99.90;;;;;;4994540;28;20246;-70
2021/11/05 05:58:53;;;;;;;4.40;4.10;;;6.50;99.90;;;;;;4994228;28;20513;-70
2021/11/05 06:01:19;;;;;;;5.27;4.77;;;6.50;99.90;;;;;;4994413;28;20217;-71
2021/11/05 06:03:45;;;;;;;4.40;4.00;;;6.50;99.90;;;;;;4994385;28;20614;-70
2021/11/05 06:06:11;;;;;;;5.40;4.87;;;6.60;99.90;;;;;;4994257;28;20422;-71
2021/11/05 06:08:37;;;;;;;3.90;3.60;;;6.60;99.90;;;;;;4993922;28;20458;-70
2021/11/05 06:11:02;;;;;;;4.40;4.00;;;6.60;99.90;;;;;;4994233;28;20513;-70
2021/11/05 06:13:28;;;;;;;5.30;4.80;;;6.60;99.90;;;;;;4994275;28;20242;-70
2021/11/05 06:15:58;;;;;;;6.07;5.50;;;6.60;99.90;;;;;;4994185;28;20164;-71
2021/11/05 06:18:24;;;;;;;7.40;6.73;;;6.50;99.90;;;;;;4993802;28;20423;-70
2021/11/05 06:20:49;;;;;;;6.40;5.90;;;6.50;99.90;;;;;;4993987;28;20435;-70
2021/11/05 06:23:15;;;;;;;5.07;4.60;;;6.60;99.90;;;;;;4996158;28;20642;-70
2021/11/05 06:25:40;;;;;;;5.83;5.33;;;6.60;99.90;;;;;;5002148;28;20171;-71
2021/11/05 06:28:06;;;;;;;7.50;6.30;;;6.60;99.90;;;;;;4993623;28;20199;-70
2021/11/05 06:30:32;;;;;;;4.77;4.37;;;6.60;99.90;;;;;;4993751;28;20203;-70
2021/11/05 06:32:59;;;;;;;6.27;4.50;;;6.70;99.90;;;;;;4993342;28;20298;-70
2021/11/05 06:35:25;;;;;;;4.73;4.33;;;6.80;99.90;;;;;;4993828;28;20758;-70
2021/11/05 06:37:50;;;;;;;4.73;4.27;;;6.80;99.90;;;;;;4992605;28;20508;-69
2021/11/05 06:40:16;;;;;;;6.40;4.50;;;6.80;99.90;;;;;;4993682;28;20199;-71
2021/11/05 06:42:42;;;;;;;5.73;4.53;;;6.80;99.90;;;;;;4993781;28;20167;-71
2021/11/05 06:45:09;;;;;;;5.10;4.60;;;6.10;99.90;;;;;;4993615;28;20419;-69
2021/11/05 06:47:36;;;;;;;5.60;5.03;;;7.00;99.90;;;;;;4993269;28;20259;-69
2021/11/05 06:50:02;;;;;;;5.00;4.60;;;7.10;99.90;;;;;;4992287;28;20426;-69
2021/11/05 06:52:27;;;;;;;6.70;6.10;;;7.20;99.90;;;;;;4993507;28;20456;-70
2021/11/05 06:54:53;;;;;;;6.30;5.10;;;7.30;99.90;;;;;;4993404;28;20502;-71
2021/11/05 06:57:19;;;;;;;4.60;4.20;;;7.40;99.90;;;;;;4991860;28;20163;-71
2021/11/05 06:59:44;;;;;;;4.67;4.27;;;7.50;99.90;;;;;;4993178;28;20180;-71
2021/11/05 07:02:10;;;;;;;4.80;4.03;;;7.50;99.90;;;;;;4993184;28;20195;-71
2021/11/05 07:04:35;;;;;;;4.47;4.07;;;7.60;99.90;;;;;;4993287;28;20171;-70
2021/11/05 07:07:01;;;;;;;5.70;5.20;;;7.60;99.90;;;;;;4993276;28;20183;-71
2021/11/05 07:09:27;;;;;;;5.70;5.20;;;7.70;99.90;;;;;;4992795;28;20222;-72
2021/11/05 07:11:52;;;;;;;6.10;5.30;;;7.70;99.90;;;;;;4993073;28;20191;-71
2021/11/05 07:14:18;;;;;;;4.43;4.03;;;7.70;99.90;;;;;;4991985;28;20506;-71
2021/11/05 07:16:44;;;;;;;5.80;4.27;;;7.80;99.90;;;;;;4993075;28;20160;-71
2021/11/05 07:19:10;;;;;;;4.87;4.50;;;7.70;99.90;;;;;;4991457;28;20654;-71
2021/11/05 07:21:36;;;;;;;5.50;4.70;;;7.70;99.90;;;;;;4992958;28;20438;-72
2021/11/05 07:24:03;;;;;;;4.80;4.40;;;7.80;99.90;;;;;;4992980;28;20167;-72
2021/11/05 07:26:38;;;;;;;5.07;4.67;;;7.90;99.90;;;;;;4993006;28;20423;-71
2021/11/05 07:29:06;;;;;;;7.83;7.03;;;7.80;99.90;;;;;;4992582;28;20829;-71
2021/11/05 07:31:32;;;;;;;6.33;5.73;;;7.70;99.90;;;;;;4992674;28;20995;-71
2021/11/05 07:33:59;;;;;;;5.33;4.90;;;7.50;99.90;;;;;;4991601;28;20422;-72
2021/11/05 07:36:25;;;;;;;5.33;4.83;;;7.50;99.90;;;;;;4992865;28;20443;-72
2021/11/05 07:38:50;;;;;;;4.87;4.47;;;7.40;99.90;;;;;;4992487;28;20427;-71
2021/11/05 07:41:16;;;;;;;4.80;4.40;;;7.50;99.90;;;;;;4992705;28;20199;-71
2021/11/05 07:43:42;;;;;;;4.80;4.40;;;7.50;99.90;;;;;;4992750;28;20218;-71
2021/11/05 07:46:07;;;;;;;4.80;4.40;;;7.40;99.90;;;;;;4992675;28;20187;-69
2021/11/05 07:48:33;;;;;;;6.20;5.60;;;7.50;99.90;;;;;;4992115;28;20773;-68
2021/11/05 07:50:59;;;;;;;5.27;4.23;;;7.60;99.90;;;;;;4992619;28;20573;-71
2021/11/05 07:53:24;;;;;;;3.67;3.37;;;7.60;99.90;;;;;;4992576;28;20638;-71
2021/11/05 07:55:50;;;;;;;4.93;4.40;;;7.60;99.90;;;;;;4992544;28;20250;-72
2021/11/05 07:58:16;;;;;;;6.53;4.13;;;7.60;99.90;;;;;;4992482;28;20179;-71
2021/11/05 08:00:42;;;;;;;4.17;3.77;;;7.70;99.90;;;;;;4992470;28;20283;-71
2021/11/05 08:03:07;;;;;;;10.40;4.43;;;7.70;99.90;;;;;;4992550;28;20514;-72
2021/11/05 08:05:33;;;;;;;4.23;3.90;;;7.70;99.90;;;;;;4992600;28;20175;-72
2021/11/05 08:07:59;;;;;;;5.63;3.70;;;7.80;99.90;;;;;;4992125;28;20222;-71
2021/11/05 08:10:24;;;;;;;3.83;3.50;;;7.90;99.90;;;;;;4992583;28;20560;-71
2021/11/05 08:12:51;;;;;;;4.13;3.83;;;7.80;99.90;;;;;;4992736;28;20695;-71
2021/11/05 08:15:22;;;;;;;3.17;2.87;;;8.00;99.90;;;;;;4992511;28;20182;-71
2021/11/05 08:17:48;;;;;;;3.97;3.67;;;7.90;99.90;;;;;;4992356;28;20922;-71
2021/11/05 08:20:14;;;;;;;3.90;3.53;;;8.00;99.90;;;;;;4992372;28;20419;-71
2021/11/05 08:22:42;;;;;;;3.97;3.67;;;8.10;99.90;;;;;;4992434;28;20418;-72
2021/11/05 08:25:09;;;;;;;3.43;3.13;;;8.20;99.90;;;;;;4992385;28;20991;-71
2021/11/05 08:27:36;;;;;;;4.13;3.57;;;8.30;99.90;;;;;;4992016;28;20426;-72
2021/11/05 08:30:07;;;;;;;4.63;3.30;;;8.50;99.90;;;;;;4992253;28;20463;-72
2021/11/05 08:32:32;;;;;;;2.70;2.50;;;8.60;99.90;;;;;;4992217;28;20457;-71
2021/11/05 08:34:58;;;;;;;2.90;2.70;;;8.50;99.90;;;;;;4992320;28;20916;-71
2021/11/05 08:37:23;;;;;;;3.37;3.10;;;8.50;99.90;;;;;;4991971;28;20176;-72
2021/11/05 08:39:49;;;;;;;4.40;3.20;;;8.50;99.90;;;;;;4992180;28;20206;-71
2021/11/05 08:42:14;;;;;;;4.10;3.77;;;8.60;99.90;;;;;;4992176;28;20199;-71
2021/11/05 08:44:40;;;;;;;3.70;3.07;;;8.90;99.90;;;;;;4992219;28;20205;-72
2021/11/05 08:47:06;;;;;;;2.40;2.30;;;9.20;99.90;;;;;;4992151;28;20242;-72
2021/11/05 08:49:31;;;;;;;3.03;2.43;;;9.40;99.90;;;;;;4991884;28;20230;-71
2021/11/05 08:51:57;;;;;;;1.90;1.70;;;9.50;99.90;;;;;;4992107;28;20565;-72
2021/11/05 08:54:23;;;;;;;1.87;1.77;;;9.50;99.90;;;;;;4992080;28;20168;-71
2021/11/05 08:56:49;;;;;;;2.13;2.00;;;9.40;99.90;;;;;;4992125;28;20179;-71
2021/11/05 08:59:18;;;;;;;2.27;2.17;;;9.40;99.90;;;;;;4991802;28;20427;-71
2021/11/05 09:01:43;;;;;;;2.40;2.20;;;9.40;99.90;;;;;;4994813;28;20191;-71
2021/11/05 09:04:13;;;;;;;2.17;1.97;;;9.50;99.90;;;;;;4995582;28;20417;-71
2021/11/05 09:06:40;;;;;;;2.40;2.10;;;9.40;99.90;;;;;;4994237;28;20684;-72
2021/11/05 09:09:06;;;;;;;3.27;2.47;;;9.40;99.90;;;;;;4995093;28;20458;-71
2021/11/05 09:11:32;;;;;;;2.63;2.43;;;9.50;99.90;;;;;;4994079;28;20533;-71
2021/11/05 09:13:57;;;;;;;2.00;1.90;;;9.70;99.90;;;;;;4995396;28;20164;-72
2021/11/05 09:16:25;;;;;;;1.53;1.43;;;9.60;99.90;;;;;;4995351;28;20426;-71
2021/11/05 09:18:51;;;;;;;3.30;2.47;;;9.60;99.90;;;;;;4995019;28;20641;-71
2021/11/05 09:21:16;;;;;;;3.50;1.80;;;9.80;99.90;;;;;;4995100;28;20521;-72
2021/11/05 09:23:42;;;;;;;2.30;2.10;;;10.10;99.90;;;;;;4995147;28;20182;-71
2021/11/05 09:26:08;;;;;;;3.53;2.10;;;10.40;99.90;;;;;;4995182;28;20580;-71
2021/11/05 09:28:35;;;;;;;2.23;1.70;;;10.60;99.90;;;;;;4994798;28;20198;-68
2021/11/05 09:31:02;;;;;;;2.67;2.47;;;10.60;99.90;;;;;;4994905;28;20454;-69
2021/11/05 09:33:28;;;;;;;2.00;1.87;;;10.90;99.90;;;;;;4995014;28;20789;-69
2021/11/05 09:35:53;;;;;;;2.00;1.90;;;11.70;99.90;;;;;;4993627;28;20418;-69
2021/11/05 09:38:19;;;;;;;1.50;1.40;;;12.30;99.90;;;;;;4994613;28;20183;-70
2021/11/05 09:40:45;;;;;;;2.27;1.70;;;12.20;99.90;;;;;;4994881;28;20198;-68
2021/11/05 09:43:12;;;;;;;1.80;1.70;;;12.00;99.90;;;;;;4994807;28;20164;-68
2021/11/05 09:45:37;;;;;;;6.50;3.73;;;12.10;99.90;;;;;;4994768;28;20763;-69
2021/11/05 09:48:04;;;;;;;2.20;2.00;;;12.30;99.90;;;;;;4994388;28;20480;-68
2021/11/05 09:50:30;;;;;;;5.60;1.80;;;12.10;99.90;;;;;;4994633;28;20703;-68
2021/11/05 09:52:56;;;;;;;1.93;1.83;;;11.70;99.90;;;;;;4994655;28;20499;-71
2021/11/05 09:55:22;;;;;;;2.67;2.47;;;11.30;99.90;;;;;;4994701;28;20433;-71
2021/11/05 09:57:48;;;;;;;2.47;1.83;;;11.00;99.90;;;;;;4992935;28;20513;-72
2021/11/05 10:00:19;;;;;;;1.83;1.73;;;11.30;99.90;;;;;;4993088;28;20167;-71
2021/11/05 10:02:48;;;;;;;2.47;2.27;;;11.20;99.90;;;;;;4993192;28;20956;-71
2021/11/05 10:05:15;;;;;;;2.17;2.07;;;11.60;99.90;;;;;;4994408;28;20437;-72
2021/11/05 10:07:55;;;;;;;2.00;1.90;;;12.60;99.90;;;;;;4994118;28;20427;-71
2021/11/05 10:10:24;;;;;;;5.77;4.63;;;14.10;99.90;;;;;;4994330;28;20422;-69
2021/11/05 10:13:07;;;;;;;4.17;3.80;;;14.30;99.90;;;;;;4994197;28;20477;-69
2021/11/05 10:15:46;;;;;;;2.80;2.60;;;15.80;99.90;;;;;;4994297;28;20414;-72
2021/11/05 10:18:30;;;;;;;2.57;2.40;;;16.90;99.90;;;;;;4993804;28;20421;-72
2021/11/05 10:21:13;;;;;;;5.30;4.90;;;16.00;99.90;;;;;;4994201;28;20965;-72
2021/11/05 10:23:41;;;;;;;2.43;2.23;;;16.00;99.90;;;;;;4994073;28;20465;-71
2021/11/05 10:26:18;;;;;;;2.13;1.93;;;15.70;99.90;;;;;;4994018;28;20434;-72
2021/11/05 10:28:43;;;;;;;1.80;1.70;;;14.40;99.90;;;;;;4993650;28;20468;-71
2021/11/05 10:31:10;;;;;;;2.27;2.13;;;13.40;99.90;;;;;;4994195;28;20458;-72
2021/11/05 10:33:43;;;;;;;3.90;2.43;;;12.90;99.90;;;;;;4993890;28;20171;-71
2021/11/05 10:36:12;;;;;;;2.73;2.53;;;12.70;99.90;;;;;;4993874;28;20422;-72
2021/11/05 10:38:48;;;;;;;3.17;2.70;;;12.40;99.90;;;;;;4993536;28;20427;-72
2021/11/05 10:41:18;;;;;;;2.30;2.10;;;12.20;99.90;;;;;;4993713;28;20958;-71
2021/11/05 10:43:45;;;;;;;2.40;2.20;;;12.10;99.90;;;;;;4993742;28;20550;-71
2021/11/05 10:46:35;;;;;;;2.53;2.33;;;12.00;99.90;;;;;;4993904;28;20788;-72
2021/11/05 10:49:06;;;;;;;2.20;2.10;;;12.60;99.90;;;;;;4993228;28;20477;-72
2021/11/05 10:51:33;;;;;;;2.50;2.30;;;13.40;99.90;;;;;;4993412;28;20951;-71
2021/11/05 10:54:00;;;;;;;2.30;2.10;;;14.80;99.90;;;;;;4993507;28;20498;-71
2021/11/05 10:56:30;;;;;;;2.00;1.90;;;15.20;99.90;;;;;;4993451;28;20897;-72
2021/11/05 10:58:57;;;;;;;3.60;3.30;;;14.80;99.90;;;;;;4993220;28;20909;-71
2021/11/05 11:01:26;;;;;;;4.63;4.23;;;14.50;99.90;;;;;;4993199;28;20459;-71
2021/11/05 11:03:57;;;;;;;4.00;3.70;;;13.90;99.90;;;;;;4993379;28;20789;-71
2021/11/05 11:06:31;;;;;;;4.20;3.90;;;12.90;99.90;;;;;;4993009;28;20426;-71
2021/11/05 11:09:04;;;;;;;4.10;3.70;;;12.30;99.90;;;;;;4992830;28;20466;-71
2021/11/05 11:11:50;;;;;;;3.43;3.23;;;12.00;99.90;;;;;;4993079;28;20449;-71
2021/11/05 11:14:18;;;;;;;3.67;3.37;;;11.80;99.90;;;;;;4993279;28;20836;-71
2021/11/05 11:16:46;;;;;;;4.60;4.30;;;11.50;99.90;;;;;;4993173;28;20970;-71
2021/11/05 11:19:17;;;;;;;4.43;3.83;;;11.50;99.90;;;;;;4993123;28;20788;-71
2021/11/05 11:21:46;;;;;;;4.03;3.73;;;11.20;99.90;;;;;;4993094;28;20454;-72
2021/11/05 11:24:16;;;;;;;4.43;4.03;;;11.10;99.90;;;;;;4992624;28;20641;-72
2021/11/05 11:26:44;;;;;;;5.27;4.87;;;10.90;99.90;;;;;;4992945;28;20426;-71
2021/11/05 11:29:12;;;;;;;5.00;4.50;;;10.70;99.90;;;;;;4992567;28;20462;-71
2021/11/05 11:31:39;;;;;;;5.57;5.17;;;10.70;99.90;;;;;;4992737;28;20975;-71
2021/11/05 11:34:07;;;;;;;5.27;4.77;;;10.70;99.90;;;;;;4992858;28;20901;-71
2021/11/05 11:36:39;;;;;;;5.60;5.10;;;10.60;99.90;;;;;;4992878;28;20423;-71
2021/11/05 11:39:08;;;;;;;6.70;6.00;;;10.60;99.90;;;;;;4992433;28;20427;-71
2021/11/05 11:41:34;;;;;;;6.20;5.60;;;10.60;99.90;;;;;;4992680;28;20470;-71
2021/11/05 11:44:02;;;;;;;5.43;5.00;;;10.60;99.90;;;;;;4992723;28;20429;-71
2021/11/05 11:46:29;;;;;;;5.20;4.80;;;10.60;99.90;;;;;;4992742;28;20436;-71
2021/11/05 11:48:56;;;;;;;7.70;6.90;;;10.70;99.90;;;;;;4992316;28;20455;-71
2021/11/05 11:51:25;;;;;;;6.40;5.90;;;10.70;99.90;;;;;;4992610;28;20486;-71
2021/11/05 11:54:00;;;;;;;6.67;6.00;;;10.70;99.90;;;;;;4992557;28;20789;-71
2021/11/05 11:56:35;;;;;;;7.17;5.30;;;10.80;99.90;;;;;;4992627;28;20422;-71
2021/11/05 11:59:05;;;;;;;6.10;4.97;;;10.90;99.90;;;;;;4992326;28;20418;-72
2021/11/05 12:01:35;;;;;;;6.40;5.80;;;11.00;99.90;;;;;;4992528;28;20447;-71
2021/11/05 12:04:22;;;;;;;5.40;4.90;;;10.90;99.90;;;;;;4992616;28;20423;-71
2021/11/05 12:06:51;;;;;;;5.97;5.47;;;11.00;99.90;;;;;;4991788;28;20438;-71
2021/11/05 12:09:38;;;;;;;5.00;4.60;;;11.20;99.90;;;;;;4992111;28;20462;-72
2021/11/05 12:12:19;;;;;;;5.10;4.67;;;11.30;99.90;;;;;;4992447;28;20442;-72
2021/11/05 12:15:00;;;;;;;5.83;5.33;;;11.20;99.90;;;;;;4992513;28;20477;-71
2021/11/05 12:17:28;;;;;;;6.70;4.33;;;11.30;99.90;;;;;;4992142;28;20442;-72
2021/11/05 12:19:59;;;;;;;4.20;3.90;;;11.30;99.90;;;;;;4992796;28;20457;-71
2021/11/05 12:22:26;;;;;;;4.90;4.50;;;11.30;99.90;;;;;;4992558;28;20536;-71
2021/11/05 12:24:52;;;;;;;5.53;5.03;;;11.50;99.90;;;;;;4992334;28;20423;-71
2021/11/05 12:27:25;;;;;;;6.50;5.77;;;11.60;99.90;;;;;;4992276;28;20423;-71
2021/11/05 12:29:54;;;;;;;6.23;5.63;;;11.90;99.90;;;;;;4992388;28;20469;-72
2021/11/05 12:32:21;;;;;;;5.53;5.07;;;12.00;99.90;;;;;;4992146;28;20540;-72
2021/11/05 12:34:50;;;;;;;6.00;5.43;;;12.40;99.90;;;;;;4992300;28;20450;-71
2021/11/05 12:37:42;;;;;;;5.93;5.43;;;13.40;99.90;;;;;;4995815;28;20514;-71
2021/11/05 12:40:33;;;;;;;5.80;5.30;;;14.30;99.90;;;;;;4996000;28;20802;-71
2021/11/05 12:43:03;;;;;;;9.67;5.07;;;14.90;99.90;;;;;;4996023;28;20426;-72
2021/11/05 12:45:53;;;;;;;5.90;5.40;;;15.30;99.90;;;;;;4995934;28;20426;-72
2021/11/05 12:48:37;;;;;;;4.90;4.40;;;15.00;99.90;;;;;;4995845;28;20967;-72
2021/11/05 12:51:19;;;;;;;4.60;4.30;;;15.20;99.90;;;;;;4995758;28;20449;-72
2021/11/05 12:54:04;;;;;;;4.70;4.30;;;15.30;99.90;;;;;;4995630;28;20422;-72
2021/11/05 12:56:31;;;;;;;4.27;3.87;;;15.80;99.90;;;;;;4995849;28;20421;-72